createdAt,value
2018-11-03T00:00:56.189Z,17.70
2018-11-03T00:03:27.278Z,16.90
2018-11-03T00:05:57.960Z,16.40
2018-11-03T00:08:28.500Z,17.00
2018-11-03T00:10:58.917Z,16.70
2018-11-03T00:13:29.319Z,18.60
2018-11-03T00:15:59.917Z,17.77
2018-11-03T00:18:30.418Z,18.37
2018-11-03T00:21:00.746Z,17.53
2018-11-03T00:23:31.149Z,17.33
2018-11-03T00:26:01.639Z,17.60
2018-11-03T00:28:32.150Z,17.10
2018-11-03T00:31:02.617Z,16.70
2018-11-03T00:33:33.323Z,17.47
2018-11-03T00:36:03.870Z,17.20
2018-11-03T00:38:34.342Z,17.60
2018-11-03T00:41:04.579Z,16.67
2018-11-03T00:43:35.128Z,17.80
2018-11-03T00:46:05.684Z,17.30
2018-11-03T00:48:36.268Z,17.73
2018-11-03T00:51:06.868Z,18.07
2018-11-03T00:53:36.978Z,17.30
2018-11-03T00:56:07.696Z,17.87
2018-11-03T00:58:38.079Z,18.53
2018-11-03T01:01:08.564Z,19.03
2018-11-03T01:03:39.064Z,18.83
2018-11-03T01:06:09.552Z,17.90
2018-11-03T01:08:40.160Z,18.87
2018-11-03T01:11:10.619Z,18.80
2018-11-03T01:13:40.875Z,17.27
2018-11-03T01:16:11.259Z,20.10
2018-11-03T01:18:42.470Z,17.67
2018-11-03T01:21:12.810Z,16.73
2018-11-03T01:23:43.391Z,16.40
2018-11-03T01:26:13.812Z,16.57
2018-11-03T01:28:44.306Z,15.77
2018-11-03T01:31:14.546Z,16.63
2018-11-03T01:33:44.940Z,16.73
2018-11-03T01:36:15.409Z,15.50
2018-11-03T01:38:46.475Z,16.20
2018-11-03T01:41:16.895Z,15.87
2018-11-03T01:43:47.140Z,15.57
2018-11-03T01:46:17.528Z,14.73
2018-11-03T01:48:47.943Z,14.23
2018-11-03T01:51:18.214Z,14.83
2018-11-03T01:53:48.489Z,16.40
2018-11-03T01:56:18.955Z,16.50
2018-11-03T01:58:49.532Z,15.47
2018-11-03T02:01:19.921Z,14.87
2018-11-03T02:03:50.544Z,15.77
2018-11-03T02:06:21.097Z,13.50
2018-11-03T02:08:51.360Z,13.90
2018-11-03T02:11:21.645Z,14.57
2018-11-03T02:13:52.384Z,16.40
2018-11-03T02:16:22.827Z,15.53
2018-11-03T02:18:53.047Z,16.63
2018-11-03T02:21:23.377Z,14.10
2018-11-03T02:23:53.762Z,18.30
2018-11-03T02:26:24.141Z,14.43
2018-11-03T02:28:54.509Z,15.57
2018-11-03T02:31:24.877Z,15.10
2018-11-03T02:33:55.383Z,14.10
2018-11-03T02:36:25.788Z,14.43
2018-11-03T02:38:56.133Z,14.70
2018-11-03T02:41:26.401Z,14.00
2018-11-03T02:43:56.783Z,13.60
2018-11-03T02:46:27.180Z,16.37
2018-11-03T02:48:57.547Z,15.80
2018-11-03T02:51:27.712Z,16.13
2018-11-03T02:53:58.179Z,15.27
2018-11-03T02:56:28.575Z,15.10
2018-11-03T02:58:59.037Z,16.20
2018-11-03T03:01:29.437Z,15.30
2018-11-03T03:03:59.803Z,15.33
2018-11-03T03:06:30.396Z,15.07
2018-11-03T03:09:00.877Z,14.07
2018-11-03T03:11:31.213Z,12.90
2018-11-03T03:14:01.482Z,14.10
2018-11-03T03:16:31.879Z,13.40
2018-11-03T03:19:02.361Z,13.50
2018-11-03T03:21:33.076Z,12.33
2018-11-03T03:24:03.442Z,11.40
2018-11-03T03:26:34.007Z,11.43
2018-11-03T03:29:04.455Z,11.50
2018-11-03T03:31:34.959Z,10.60
2018-11-03T03:34:05.514Z,10.67
2018-11-03T03:36:36.028Z,11.50
2018-11-03T03:39:09.547Z,11.10
2018-11-03T03:41:40.483Z,10.20
2018-11-03T03:44:10.823Z,10.60
2018-11-03T03:46:41.366Z,8.87
2018-11-03T03:49:11.773Z,9.10
2018-11-03T03:51:42.164Z,10.80
2018-11-03T03:54:12.556Z,9.50
2018-11-03T03:56:43.034Z,9.80
2018-11-03T03:59:13.453Z,9.23
2018-11-03T04:01:43.803Z,9.20
2018-11-03T04:04:14.161Z,8.63
2018-11-03T04:06:44.703Z,8.10
2018-11-03T04:09:15.170Z,7.13
2018-11-03T04:11:45.766Z,7.73
2018-11-03T04:14:16.212Z,8.00
2018-11-03T04:16:46.818Z,9.40
2018-11-03T04:19:17.232Z,9.53
2018-11-03T04:21:47.690Z,8.27
2018-11-03T04:24:18.056Z,7.70
2018-11-03T04:26:48.531Z,8.17
2018-11-03T04:29:19.019Z,8.63
2018-11-03T04:31:49.418Z,7.90
2018-11-03T04:34:19.783Z,9.87
2018-11-03T04:36:50.670Z,8.40
2018-11-03T04:39:21.042Z,8.63
2018-11-03T04:41:51.431Z,11.00
2018-11-03T04:44:21.670Z,8.30
2018-11-03T04:46:52.134Z,8.97
2018-11-03T04:49:22.751Z,8.57
2018-11-03T04:51:53.184Z,8.87
2018-11-03T04:54:23.645Z,8.47
2018-11-03T04:56:53.908Z,7.50
2018-11-03T04:59:24.279Z,8.67
2018-11-03T05:01:54.673Z,9.47
2018-11-03T05:04:25.277Z,8.97
2018-11-03T05:06:55.836Z,9.40
2018-11-03T05:09:27.738Z,8.70
2018-11-03T05:11:58.103Z,8.90
2018-11-03T05:14:28.552Z,10.10
2018-11-03T05:16:59.009Z,10.50
2018-11-03T05:19:29.244Z,11.20
2018-11-03T05:22:01.206Z,10.67
2018-11-03T05:24:32.942Z,10.63
2018-11-03T05:27:03.272Z,9.50
2018-11-03T05:29:33.547Z,10.37
2018-11-03T05:32:08.087Z,7.83
2018-11-03T05:34:38.594Z,5.67
2018-11-03T05:37:10.389Z,6.97
2018-11-03T05:39:43.816Z,5.73
2018-11-03T05:42:15.223Z,5.40
2018-11-03T05:44:45.589Z,5.90
2018-11-03T05:47:16.564Z,7.07
2018-11-03T05:49:47.650Z,5.63
2018-11-03T05:52:18.081Z,6.50
2018-11-03T05:54:48.759Z,8.10
2018-11-03T05:57:21.086Z,8.53
2018-11-03T05:59:57.804Z,8.37
2018-11-03T06:02:28.439Z,7.80
2018-11-03T06:04:59.345Z,7.53
2018-11-03T06:07:29.864Z,8.93
2018-11-03T06:10:00.359Z,8.57
2018-11-03T06:12:30.588Z,8.10
2018-11-03T06:15:00.904Z,9.00
2018-11-03T06:17:31.271Z,8.40
2018-11-03T06:20:01.398Z,7.67
2018-11-03T06:22:31.836Z,7.20
2018-11-03T06:25:02.194Z,10.70
2018-11-03T06:27:32.624Z,7.43
2018-11-03T06:30:03.183Z,7.67
2018-11-03T06:32:33.468Z,7.30
2018-11-03T06:35:03.922Z,8.10
2018-11-03T06:37:34.281Z,6.80
2018-11-03T06:40:04.698Z,7.63
2018-11-03T06:42:36.297Z,7.30
2018-11-03T06:45:07.686Z,9.07
2018-11-03T06:47:38.164Z,8.97
2018-11-03T06:50:09.316Z,8.13
2018-11-03T06:52:39.627Z,8.07
2018-11-03T06:55:10.322Z,10.77
2018-11-03T06:57:40.823Z,9.33
2018-11-03T07:00:11.481Z,8.90
2018-11-03T07:02:42.107Z,10.70
2018-11-03T07:05:12.767Z,19.30
2018-11-03T07:07:43.259Z,14.93
2018-11-03T07:10:13.786Z,13.23
2018-11-03T07:12:44.376Z,11.70
2018-11-03T07:15:14.657Z,11.17
2018-11-03T07:17:45.015Z,11.10
2018-11-03T07:20:15.496Z,11.07
2018-11-03T07:22:45.947Z,11.87
2018-11-03T07:25:16.540Z,10.60
2018-11-03T07:27:46.961Z,12.30
2018-11-03T07:30:17.651Z,10.87
2018-11-03T07:32:48.054Z,10.97
2018-11-03T07:35:18.547Z,10.83
2018-11-03T07:37:48.883Z,9.57
2018-11-03T07:40:19.343Z,9.17
2018-11-03T07:42:49.858Z,9.10
2018-11-03T07:45:20.228Z,9.17
2018-11-03T07:47:50.699Z,8.30
2018-11-03T07:50:21.221Z,8.30
2018-11-03T07:52:51.658Z,8.40
2018-11-03T07:55:22.411Z,8.27
2018-11-03T07:57:52.971Z,11.07
2018-11-03T08:00:24.401Z,8.20
2018-11-03T08:02:54.752Z,8.80
2018-11-03T08:05:25.183Z,9.70
2018-11-03T08:07:55.523Z,10.40
2018-11-03T08:10:25.973Z,11.27
2018-11-03T08:12:56.470Z,11.40
2018-11-03T08:15:26.847Z,11.10
2018-11-03T08:17:57.227Z,13.10
2018-11-03T08:20:27.766Z,14.37
2018-11-03T08:22:58.291Z,12.67
2018-11-03T08:25:28.879Z,13.63
2018-11-03T08:27:59.248Z,13.77
2018-11-03T08:30:29.832Z,14.60
2018-11-03T08:33:00.179Z,13.77
2018-11-03T08:35:30.704Z,13.90
2018-11-03T08:38:01.359Z,13.83
2018-11-03T08:40:31.854Z,11.60
2018-11-03T08:43:02.324Z,14.30
2018-11-03T08:45:32.889Z,16.37
2018-11-03T08:48:03.385Z,16.30
2018-11-03T08:50:33.881Z,15.70
2018-11-03T08:53:04.307Z,18.37
2018-11-03T08:55:34.784Z,17.73
2018-11-03T08:58:05.243Z,18.23
2018-11-03T09:00:35.607Z,17.63
2018-11-03T09:03:05.973Z,17.77
2018-11-03T09:05:36.592Z,17.27
2018-11-03T09:08:07.351Z,19.37
2018-11-03T09:10:37.861Z,17.10
2018-11-03T09:13:08.240Z,16.37
2018-11-03T09:15:38.491Z,18.83
2018-11-03T09:18:09.006Z,17.70
2018-11-03T09:20:39.340Z,18.40
2018-11-03T09:23:09.769Z,17.83
2018-11-03T09:25:41.093Z,18.27
2018-11-03T09:28:11.864Z,18.37
2018-11-03T09:30:42.254Z,16.67
2018-11-03T09:33:12.717Z,17.37
2018-11-03T09:35:43.118Z,15.63
2018-11-03T09:38:13.443Z,15.20
2018-11-03T09:40:43.940Z,14.20
2018-11-03T09:43:14.343Z,16.83
2018-11-03T09:45:44.814Z,16.00
2018-11-03T09:48:15.077Z,14.73
2018-11-03T09:50:45.572Z,15.40
2018-11-03T09:53:15.947Z,15.00
2018-11-03T09:55:46.553Z,15.03
2018-11-03T09:58:16.915Z,15.20
2018-11-03T10:00:47.183Z,15.10
2018-11-03T10:03:17.634Z,13.73
2018-11-03T10:05:48.043Z,14.13
2018-11-03T10:08:18.432Z,16.13
2018-11-03T10:10:49.023Z,13.03
2018-11-03T10:13:19.457Z,13.20
2018-11-03T10:15:49.963Z,11.67
2018-11-03T10:18:20.451Z,13.13
2018-11-03T10:20:50.936Z,12.77
2018-11-03T10:23:21.338Z,11.00
2018-11-03T10:25:51.590Z,12.50
2018-11-03T10:28:21.957Z,11.10
2018-11-03T10:30:52.484Z,11.10
2018-11-03T10:33:22.860Z,12.50
2018-11-03T10:35:53.090Z,14.37
2018-11-03T10:38:23.466Z,12.97
2018-11-03T10:40:54.072Z,11.70
2018-11-03T10:43:24.582Z,10.93
2018-11-03T10:45:55.048Z,12.37
2018-11-03T10:48:25.303Z,13.30
2018-11-03T10:50:55.769Z,11.47
2018-11-03T10:53:26.153Z,11.47
2018-11-03T10:55:57.636Z,11.43
2018-11-03T10:58:28.069Z,9.40
2018-11-03T11:01:03.552Z,9.23
2018-11-03T11:03:39.009Z,8.17
2018-11-03T11:06:14.409Z,8.70
2018-11-03T11:08:49.868Z,8.40
2018-11-03T11:11:25.320Z,8.43
2018-11-03T11:13:55.676Z,6.83
2018-11-03T11:16:25.937Z,6.83
2018-11-03T11:18:56.398Z,7.47
2018-11-03T11:21:26.852Z,10.13
2018-11-03T11:23:57.396Z,11.30
2018-11-03T11:26:27.890Z,11.00
2018-11-03T11:28:58.271Z,9.60
2018-11-03T11:31:28.735Z,12.43
2018-11-03T11:33:59.171Z,11.87
2018-11-03T11:36:29.745Z,11.77
2018-11-03T11:38:59.996Z,11.53
2018-11-03T11:41:30.407Z,11.83
2018-11-03T11:44:00.795Z,10.93
2018-11-03T11:46:31.307Z,11.37
2018-11-03T11:49:01.855Z,11.47
2018-11-03T11:51:32.431Z,11.50
2018-11-03T11:54:02.922Z,11.70
2018-11-03T11:56:33.474Z,10.27
2018-11-03T11:59:03.775Z,9.80
2018-11-03T12:01:34.341Z,9.03
2018-11-03T12:04:04.882Z,8.97
2018-11-03T12:06:35.392Z,8.10
2018-11-03T12:09:07.522Z,8.43
2018-11-03T12:11:38.005Z,8.47
2018-11-03T12:14:08.813Z,9.27
2018-11-03T12:16:39.317Z,7.23
2018-11-03T12:19:09.783Z,7.00
2018-11-03T12:21:40.127Z,6.97
2018-11-03T12:24:10.517Z,6.60
2018-11-03T12:26:41.087Z,7.30
2018-11-03T12:29:11.415Z,7.30
2018-11-03T12:31:42.061Z,6.57
2018-11-03T12:34:12.576Z,5.93
2018-11-03T12:36:42.933Z,7.30
2018-11-03T12:39:13.464Z,6.87
2018-11-03T12:41:44.097Z,6.90
2018-11-03T12:44:14.516Z,7.10
2018-11-03T12:46:45.020Z,7.10
2018-11-03T12:49:15.337Z,6.10
2018-11-03T12:51:45.704Z,6.50
2018-11-03T12:54:16.200Z,6.73
2018-11-03T12:56:46.616Z,6.67
2018-11-03T12:59:16.941Z,6.83
2018-11-03T13:01:47.344Z,8.00
2018-11-03T13:04:17.956Z,8.23
2018-11-03T13:06:48.499Z,7.87
2018-11-03T13:09:18.808Z,7.47
2018-11-03T13:11:49.185Z,6.80
2018-11-03T13:14:19.470Z,6.57
2018-11-03T13:16:49.828Z,5.57
2018-11-03T13:19:20.134Z,6.10
2018-11-03T13:21:50.496Z,7.10
2018-11-03T13:24:20.904Z,6.70
2018-11-03T13:26:51.451Z,5.70
2018-11-03T13:29:21.849Z,6.50
2018-11-03T13:31:52.536Z,6.87
2018-11-03T13:34:22.911Z,6.83
2018-11-03T13:36:53.196Z,6.40
2018-11-03T13:39:23.656Z,6.43
2018-11-03T13:41:54.156Z,6.40
2018-11-03T13:44:24.662Z,6.53
2018-11-03T13:46:54.936Z,6.50
2018-11-03T13:49:25.259Z,7.17
2018-11-03T13:51:55.745Z,6.40
2018-11-03T13:54:26.155Z,6.40
2018-11-03T13:56:56.623Z,6.97
2018-11-03T13:59:26.988Z,6.43
2018-11-03T14:01:57.403Z,6.30
2018-11-03T14:04:27.682Z,6.30
2018-11-03T14:06:58.344Z,6.40
2018-11-03T14:09:28.568Z,6.20
2018-11-03T14:11:58.866Z,6.37
2018-11-03T14:14:29.309Z,6.07
2018-11-03T14:16:59.894Z,6.23
2018-11-03T14:19:30.172Z,5.80
2018-11-03T14:22:00.608Z,5.93
2018-11-03T14:24:31.010Z,6.30
2018-11-03T14:27:01.587Z,5.47
2018-11-03T14:29:32.083Z,6.57
2018-11-03T14:32:02.443Z,5.70
2018-11-03T14:34:32.811Z,6.00
2018-11-03T14:37:03.409Z,6.20
2018-11-03T14:39:34.036Z,5.97
2018-11-03T14:42:04.520Z,7.27
2018-11-03T14:44:35.138Z,6.10
2018-11-03T14:47:05.591Z,7.47
2018-11-03T14:49:36.032Z,6.30
2018-11-03T14:52:06.907Z,6.33
2018-11-03T14:54:37.409Z,7.47
2018-11-03T14:57:08.339Z,7.17
2018-11-03T14:59:38.751Z,7.67
2018-11-03T15:02:09.921Z,7.77
2018-11-03T15:04:40.237Z,7.30
2018-11-03T15:07:10.856Z,7.07
2018-11-03T15:09:41.328Z,8.17
2018-11-03T15:12:12.176Z,8.87
2018-11-03T15:14:42.654Z,8.67
2018-11-03T15:17:12.976Z,9.80
2018-11-03T15:19:43.436Z,9.33
2018-11-03T15:22:13.963Z,8.70
2018-11-03T15:24:44.240Z,8.93
2018-11-03T15:27:14.786Z,9.53
2018-11-03T15:29:45.043Z,10.80
2018-11-03T15:32:15.427Z,12.27
2018-11-03T15:34:45.780Z,11.03
2018-11-03T15:37:16.410Z,9.33
2018-11-03T15:39:46.812Z,9.53
2018-11-03T15:42:17.252Z,9.33
2018-11-03T15:44:47.655Z,9.50
2018-11-03T15:47:18.129Z,11.57
2018-11-03T15:49:48.554Z,18.30
2018-11-03T15:52:18.913Z,26.13
2018-11-03T15:54:49.393Z,17.20
2018-11-03T15:57:19.778Z,13.90
2018-11-03T15:59:50.052Z,14.80
2018-11-03T16:02:20.548Z,12.77
2018-11-03T16:04:51.012Z,11.43
2018-11-03T16:07:21.369Z,11.63
2018-11-03T16:09:51.758Z,9.53
2018-11-03T16:12:22.256Z,11.83
2018-11-03T16:14:52.754Z,12.07
2018-11-03T16:17:22.988Z,11.17
2018-11-03T16:19:53.383Z,11.00
2018-11-03T16:22:23.843Z,11.43
2018-11-03T16:24:54.235Z,11.80
2018-11-03T16:27:24.613Z,14.00
2018-11-03T16:29:54.935Z,14.87
2018-11-03T16:32:25.886Z,12.60
2018-11-03T16:34:56.744Z,12.23
2018-11-03T16:37:27.284Z,10.70
2018-11-03T16:39:57.755Z,11.57
2018-11-03T16:42:28.255Z,10.10
2018-11-03T16:44:58.600Z,9.00
2018-11-03T16:47:28.974Z,11.97
2018-11-03T16:49:59.475Z,14.40
2018-11-03T16:52:30.028Z,14.00
2018-11-03T16:55:00.458Z,13.50
2018-11-03T16:57:30.820Z,13.30
2018-11-03T17:00:01.288Z,9.30
2018-11-03T17:02:31.719Z,11.50
2018-11-03T17:05:01.948Z,23.63
2018-11-03T17:07:32.306Z,20.20
2018-11-03T17:10:03.238Z,13.30
2018-11-03T17:12:33.636Z,10.27
2018-11-03T17:15:04.261Z,10.57
2018-11-03T17:17:34.696Z,10.07
2018-11-03T17:20:05.216Z,11.70
2018-11-03T17:22:35.542Z,11.10
2018-11-03T17:25:06.598Z,11.57
2018-11-03T17:27:37.089Z,22.60
2018-11-03T17:30:09.404Z,15.40
2018-11-03T17:32:39.721Z,10.73
2018-11-03T17:35:10.636Z,11.80
2018-11-03T17:37:41.359Z,11.67
2018-11-03T17:40:12.040Z,11.33
2018-11-03T17:42:42.575Z,12.27
2018-11-03T17:45:13.425Z,11.27
2018-11-03T17:47:43.873Z,11.07
2018-11-03T17:50:14.723Z,10.77
2018-11-03T17:52:45.015Z,11.07
2018-11-03T17:55:15.505Z,11.83
2018-11-03T17:57:46.041Z,11.60
2018-11-03T18:00:17.443Z,13.13
2018-11-03T18:02:48.041Z,11.30
2018-11-03T18:05:18.424Z,10.57
2018-11-03T18:07:48.895Z,10.77
2018-11-03T18:10:19.337Z,10.10
2018-11-03T18:12:49.775Z,10.40
2018-11-03T18:15:20.282Z,13.10
2018-11-03T18:17:50.662Z,21.30
2018-11-03T18:20:21.244Z,26.90
2018-11-03T18:22:51.620Z,12.90
2018-11-03T18:25:22.116Z,14.40
2018-11-03T18:27:52.696Z,14.23
2018-11-03T18:30:23.174Z,12.00
2018-11-03T18:32:53.596Z,14.63
2018-11-03T18:35:24.003Z,11.97
2018-11-03T18:37:54.880Z,12.53
2018-11-03T18:40:25.296Z,10.60
2018-11-03T18:42:55.697Z,11.10
2018-11-03T18:45:26.196Z,10.70
2018-11-03T18:47:56.714Z,11.60
2018-11-03T18:50:27.092Z,10.90
2018-11-03T18:52:57.532Z,10.83
2018-11-03T18:55:28.071Z,11.33
2018-11-03T18:57:58.455Z,10.70
2018-11-03T19:00:28.844Z,11.90
2018-11-03T19:02:59.496Z,14.23
2018-11-03T19:05:29.964Z,12.43
2018-11-03T19:08:00.752Z,11.93
2018-11-03T19:10:31.277Z,14.33
2018-11-03T19:13:01.809Z,17.23
2018-11-03T19:15:32.339Z,13.30
2018-11-03T19:18:02.936Z,13.77
2018-11-03T19:20:33.959Z,13.57
2018-11-03T19:23:04.590Z,13.23
2018-11-03T19:25:34.993Z,12.33
2018-11-03T19:28:05.640Z,14.40
2018-11-03T19:30:35.827Z,15.03
2018-11-03T19:33:06.907Z,13.80
2018-11-03T19:35:37.348Z,12.10
2018-11-03T19:38:08.381Z,11.53
2018-11-03T19:40:38.800Z,11.83
2018-11-03T19:43:09.056Z,12.93
2018-11-03T19:45:39.559Z,12.33
2018-11-03T19:48:10.206Z,12.17
2018-11-03T19:50:40.527Z,12.10
2018-11-03T19:53:10.868Z,14.33
2018-11-03T19:55:41.485Z,13.43
2018-11-03T19:58:12.064Z,15.80
2018-11-03T20:00:42.556Z,16.27
2018-11-03T20:03:13.201Z,13.40
2018-11-03T20:05:43.828Z,18.97
2018-11-03T20:08:14.503Z,16.10
2018-11-03T20:10:45.160Z,18.03
2018-11-03T20:13:15.594Z,14.57
2018-11-03T20:15:45.945Z,12.57
2018-11-03T20:18:16.524Z,13.50
2018-11-03T20:20:46.923Z,17.27
2018-11-03T20:23:17.298Z,13.00
2018-11-03T20:25:47.752Z,15.13
2018-11-03T20:28:18.268Z,15.83
2018-11-03T20:30:48.710Z,16.63
2018-11-03T20:33:19.171Z,14.07
2018-11-03T20:35:49.628Z,11.13
2018-11-03T20:38:19.948Z,12.10
2018-11-03T20:40:50.291Z,12.60
2018-11-03T20:43:20.738Z,11.77
2018-11-03T20:45:51.231Z,13.47
2018-11-03T20:48:21.677Z,13.33
2018-11-03T20:50:56.295Z,13.10
2018-11-03T20:53:27.080Z,13.30
2018-11-03T20:55:57.468Z,12.30
2018-11-03T20:58:27.675Z,13.40
2018-11-03T21:00:58.008Z,16.63
2018-11-03T21:03:28.893Z,16.13
2018-11-03T21:06:00.745Z,16.43
2018-11-03T21:08:30.526Z,18.20
2018-11-03T21:11:00.267Z,20.00
2018-11-03T21:13:29.958Z,22.93
2018-11-03T21:15:59.698Z,18.80
2018-11-03T21:18:29.644Z,16.90
2018-11-03T21:20:59.407Z,16.87
2018-11-03T21:23:29.230Z,18.60
2018-11-03T21:25:58.847Z,16.40
2018-11-03T21:28:28.734Z,15.70
2018-11-03T21:30:58.603Z,14.50
2018-11-03T21:33:28.355Z,17.23
2018-11-03T21:35:58.067Z,20.17
2018-11-03T21:38:46.896Z,22.00
2018-11-03T21:41:16.665Z,21.10
2018-11-03T21:43:47.481Z,19.77
2018-11-03T21:46:17.982Z,21.40
2018-11-03T21:48:48.398Z,17.53
2018-11-03T21:51:18.803Z,17.67
2018-11-03T21:53:48.876Z,17.20
2018-11-03T21:56:19.137Z,19.00
2018-11-03T21:58:50.500Z,17.43
2018-11-03T22:01:20.803Z,16.57
2018-11-03T22:03:51.024Z,15.90
2018-11-03T22:06:22.407Z,16.93
2018-11-03T22:08:52.247Z,20.57
2018-11-03T22:11:26.001Z,17.90
2018-11-03T22:13:55.816Z,21.60
2018-11-03T22:16:25.665Z,26.30
2018-11-03T22:18:56.164Z,24.10
2018-11-03T22:21:25.967Z,24.80
2018-11-03T22:23:55.944Z,22.70
2018-11-03T22:26:25.775Z,24.07
2018-11-03T22:28:55.787Z,18.90
2018-11-03T22:31:26.082Z,19.20
2018-11-03T22:33:56.324Z,17.10
2018-11-03T22:36:26.413Z,15.97
2018-11-03T22:38:56.192Z,17.67
2018-11-03T22:41:26.084Z,16.73
2018-11-03T22:43:56.062Z,15.40
2018-11-03T22:46:26.307Z,14.37
2018-11-03T22:48:56.796Z,16.03
2018-11-03T22:51:27.206Z,15.03
2018-11-03T22:53:57.531Z,19.17
2018-11-03T22:56:27.919Z,16.93
2018-11-03T22:58:58.327Z,17.80
2018-11-03T23:01:28.802Z,16.00
2018-11-03T23:03:59.299Z,16.03
2018-11-03T23:06:29.587Z,16.73
2018-11-03T23:09:00.072Z,17.87
2018-11-03T23:11:30.607Z,19.30
2018-11-03T23:14:01.115Z,19.70
2018-11-03T23:16:31.529Z,21.20
2018-11-03T23:19:01.777Z,21.80
2018-11-03T23:21:32.158Z,21.13
2018-11-03T23:24:02.744Z,20.53
2018-11-03T23:26:33.137Z,19.10
2018-11-03T23:29:03.542Z,20.17
2018-11-03T23:31:33.863Z,19.93
2018-11-03T23:34:04.399Z,20.90
2018-11-03T23:36:34.688Z,21.33
2018-11-03T23:39:07.205Z,21.97
2018-11-03T23:41:37.560Z,21.70
2018-11-03T23:44:08.281Z,19.97
2018-11-03T23:46:39.176Z,20.97
2018-11-03T23:49:09.778Z,24.00
2018-11-03T23:51:40.421Z,24.50
2018-11-03T23:54:10.792Z,23.10
2018-11-03T23:56:41.055Z,22.10
2018-11-03T23:59:11.540Z,24.80
